Time;durP1;ratioP1;P1;durP2;ratioP2;P2;SDS_P1;SDS_P2;PMS_P1;PMS_P2;Temp;Humidity;BMP_temperature;BMP_pressure;BME280_temperature;BME280_humidity;BME280_pressure;Samples;Min_cycle;Max_cycle;Signal;HPM_P1;HPM_P2
2023/02/20 00:01:22;;;;;;;;;;;;;;;7.14;76.16;100978.63;1954710;73;20112;-42
2023/02/20 00:03:49;;;;;;;;;;;;;;;7.16;76.25;100967.67;1951988;73;20116;-45
2023/02/20 00:06:17;;;;;;;;;;;;;;;7.19;76.20;100955.80;1952994;73;20155;-46
2023/02/20 00:08:45;;;;;;;;;;;;;;;7.24;76.12;100951.33;1950569;74;20146;-45
2023/02/20 00:11:13;;;;;;;;;;;;;;;7.27;76.07;100940.80;1957705;73;20112;-46
2023/02/20 00:13:47;;;;;;;;;;;;;;;7.29;76.01;100940.31;1959148;73;20100;-46
2023/02/20 00:16:15;;;;;;;;;;;;;;;7.30;75.98;100938.13;1959249;73;20371;-46
2023/02/20 00:18:44;;;;;;;;;;;;;;;7.30;75.99;100932.88;1952706;73;20210;-44
2023/02/20 00:21:12;;;;;;;;;;;;;;;7.29;75.98;100925.91;1950665;73;20230;-49
2023/02/20 00:23:39;;;;;;;;;;;;;;;7.30;75.94;100927.64;1952349;73;20189;-45
2023/02/20 00:26:11;;;;;;;;;;;;;;;7.30;75.88;100917.59;1951712;73;20222;-45
2023/02/20 00:28:40;;;;;;;;;;;;;;;7.30;75.82;100914.97;1951010;73;20343;-49
2023/02/20 00:31:09;;;;;;;;;;;;;;;7.30;75.84;100913.66;1951904;73;20522;-45
2023/02/20 00:33:37;;;;;;;;;;;;;;;7.27;75.89;100905.44;1936228;73;20477;-46
2023/02/20 00:36:05;;;;;;;;;;;;;;;7.23;75.99;100898.98;1940898;74;20297;-45
2023/02/20 00:38:33;;;;;;;;;;;;;;;7.21;76.05;100889.88;1943498;74;20112;-45
2023/02/20 00:41:02;;;;;;;;;;;;;;;7.21;76.02;100881.13;1943992;74;20536;-45
2023/02/20 00:43:30;;;;;;;;;;;;;;;7.20;76.01;100875.04;1930799;74;20096;-48
2023/02/20 00:45:58;;;;;;;;;;;;;;;7.21;75.99;100867.61;1933663;74;20257;-46
2023/02/20 00:48:25;;;;;;;;;;;;;;;7.20;75.94;100873.73;1925256;74;20226;-47
2023/02/20 00:50:55;;;;;;;;;;;;;;;7.16;76.06;100868.16;1926657;74;20111;-46
2023/02/20 00:53:22;;;;;;;;;;;;;;;7.16;76.11;100860.30;1934593;74;20269;-48
2023/02/20 00:55:50;;;;;;;;;;;;;;;7.19;76.13;100857.59;1943236;74;20117;-49
2023/02/20 00:58:18;;;;;;;;;;;;;;;7.20;76.12;100856.71;1934772;73;20269;-49
2023/02/20 01:00:46;;;;;;;;;;;;;;;7.22;76.10;100840.51;1941774;74;20143;-47
2023/02/20 01:03:13;;;;;;;;;;;;;;;7.19;76.19;100840.56;1933403;74;20105;-48
2023/02/20 01:05:41;;;;;;;;;;;;;;;7.17;76.28;100842.36;1942125;74;20308;-48
2023/02/20 01:08:09;;;;;;;;;;;;;;;7.20;76.24;100843.61;1937614;74;20261;-44
2023/02/20 01:10:36;;;;;;;;;;;;;;;7.23;76.15;100843.55;1932374;74;20193;-46
2023/02/20 01:13:04;;;;;;;;;;;;;;;7.23;76.13;100838.31;1933941;74;20190;-46
2023/02/20 01:15:32;;;;;;;;;;;;;;;7.25;76.09;100844.38;1941226;74;20238;-44
2023/02/20 01:18:00;;;;;;;;;;;;;;;7.26;76.03;100842.15;1936633;74;20164;-44
2023/02/20 01:20:27;;;;;;;;;;;;;;;7.25;76.07;100832.59;1940665;74;20186;-49
2023/02/20 01:22:55;;;;;;;;;;;;;;;7.27;76.07;100832.10;1939829;74;20104;-44
2023/02/20 01:25:23;;;;;;;;;;;;;;;7.27;76.13;100822.08;1942994;74;20187;-47
2023/02/20 01:27:50;;;;;;;;;;;;;;;7.25;76.22;100819.49;1937060;74;20215;-45
2023/02/20 01:30:18;;;;;;;;;;;;;;;7.26;76.26;100812.48;1935070;74;20223;-44
2023/02/20 01:32:46;;;;;;;;;;;;;;;7.27;76.29;100807.22;1943001;72;20239;-45
2023/02/20 01:35:15;;;;;;;;;;;;;;;7.28;76.35;100808.92;1940781;74;20540;-45
2023/02/20 01:37:43;;;;;;;;;;;;;;;7.30;76.33;100813.70;1940216;74;20511;-46
2023/02/20 01:40:18;;;;;;;;;;;;;;;7.31;76.27;100807.55;1942810;74;20096;-45
2023/02/20 01:42:46;;;;;;;;;;;;;;;7.32;76.28;100805.35;1942320;74;20211;-45
2023/02/20 01:45:18;;;;;;;;;;;;;;;7.32;76.31;100805.35;1942678;74;20156;-46
2023/02/20 01:47:46;;;;;;;;;;;;;;;7.32;76.34;100801.42;1941858;74;20113;-45
2023/02/20 01:50:16;;;;;;;;;;;;;;;7.34;76.41;100803.55;1939815;74;20378;-45
2023/02/20 01:52:45;;;;;;;;;;;;;;;7.37;76.56;100796.52;1934014;74;20470;-48
2023/02/20 01:55:17;;;;;;;;;;;;;;;7.42;76.84;100801.20;1933157;74;20116;-47
2023/02/20 01:57:46;;;;;;;;;;;;;;;7.46;76.78;100802.38;1929498;74;20226;-45
2023/02/20 02:00:18;;;;;;;;;;;;;;;7.50;76.72;100800.54;1944567;73;20266;-45
2023/02/20 02:02:50;;;;;;;;;;;;;;;7.56;76.77;100800.38;1931914;74;20179;-44
2023/02/20 02:05:18;;;;;;;;;;;;;;;7.60;76.95;100799.42;1944207;74;20164;-44
2023/02/20 02:07:46;;;;;;;;;;;;;;;7.64;77.00;100796.27;1931979;74;20113;-43
2023/02/20 02:10:15;;;;;;;;;;;;;;;7.69;76.89;100789.13;1947919;74;20116;-47
2023/02/20 02:12:44;;;;;;;;;;;;;;;7.70;76.92;100794.33;1936867;74;20113;-45
2023/02/20 02:15:16;;;;;;;;;;;;;;;7.71;76.89;100800.00;1923763;74;20363;-45
2023/02/20 02:17:51;;;;;;;;;;;;;;;7.70;77.09;100806.13;1924499;74;20544;-44
2023/02/20 02:20:20;;;;;;;;;;;;;;;7.68;77.15;100805.31;1927138;74;20234;-43
2023/02/20 02:23:06;;;;;;;;;;;;;;;7.65;77.22;100802.75;1945156;74;20112;-43
2023/02/20 02:25:47;;;;;;;;;;;;;;;7.62;77.46;100800.23;1930260;74;20114;-44
2023/02/20 02:28:27;;;;;;;;;;;;;;;7.60;77.71;100796.80;1949395;74;20108;-46
2023/02/20 02:31:13;;;;;;;;;;;;;;;7.56;78.12;100798.21;1939462;74;20113;-43
2023/02/20 02:33:42;;;;;;;;;;;;;;;7.49;78.59;100796.22;1936341;73;20167;-43
2023/02/20 02:36:17;;;;;;;;;;;;;;;7.38;79.81;100783.38;1951922;73;20150;-43
2023/02/20 02:38:46;;;;;;;;;;;;;;;7.28;80.84;100769.63;1952851;73;20108;-44
2023/02/20 02:41:22;;;;;;;;;;;;;;;7.20;81.52;100765.05;1938981;73;20113;-45
2023/02/20 02:43:51;;;;;;;;;;;;;;;7.11;82.41;100774.44;1940926;73;20146;-46
2023/02/20 02:46:23;;;;;;;;;;;;;;;7.04;83.63;100772.86;1952618;73;20113;-47
2023/02/20 02:48:52;;;;;;;;;;;;;;;7.01;84.48;100767.69;1952379;73;20164;-46
2023/02/20 02:51:21;;;;;;;;;;;;;;;6.99;84.74;100770.80;1953065;73;20108;-46
2023/02/20 02:54:09;;;;;;;;;;;;;;;6.97;85.23;100753.81;1936284;73;20105;-45
2023/02/20 02:56:37;;;;;;;;;;;;;;;6.95;85.47;100735.55;1952823;73;20190;-45
2023/02/20 02:59:06;;;;;;;;;;;;;;;6.94;86.38;100731.20;1952786;73;20117;-45
2023/02/20 03:01:35;;;;;;;;;;;;;;;6.94;86.57;100726.42;1952752;73;20375;-44
2023/02/20 03:04:05;;;;;;;;;;;;;;;6.94;87.14;100719.41;1953546;73;20116;-44
2023/02/20 03:06:34;;;;;;;;;;;;;;;6.94;87.23;100698.93;1953530;73;20363;-44
2023/02/20 03:09:10;;;;;;;;;;;;;;;6.93;87.74;100690.23;1953018;73;20104;-43
2023/02/20 03:11:38;;;;;;;;;;;;;;;6.93;87.84;100670.59;1952703;73;20159;-44
2023/02/20 03:16:56;;;;;;;;;;;;;;;6.95;88.04;100674.03;1952882;73;20390;-45
2023/02/20 03:19:29;;;;;;;;;;;;;;;6.95;87.82;100669.22;1953084;73;20147;-45
2023/02/20 03:21:58;;;;;;;;;;;;;;;6.99;87.79;100660.41;1953097;73;20112;-44
2023/02/20 03:24:27;;;;;;;;;;;;;;;7.02;87.70;100661.63;1957212;73;20142;-42
2023/02/20 03:26:56;;;;;;;;;;;;;;;7.06;87.45;100658.48;1959216;73;20378;-42
2023/02/20 03:29:26;;;;;;;;;;;;;;;7.09;87.02;100663.65;1953018;73;20367;-42
2023/02/20 03:45:51;;;;;;;;;;;;;;;7.24;86.01;100703.83;1953396;73;20116;-45
2023/02/20 03:48:21;;;;;;;;;;;;;;;7.24;85.91;100701.67;1953625;73;20370;-47
2023/02/20 03:50:49;;;;;;;;;;;;;;;7.23;85.73;100705.17;1952002;73;20159;-47
2023/02/20 03:53:18;;;;;;;;;;;;;;;7.22;85.61;100709.56;1952797;73;20101;-45
2023/02/20 03:55:46;;;;;;;;;;;;;;;7.21;85.58;100701.73;1953153;73;20397;-44
2023/02/20 03:58:17;;;;;;;;;;;;;;;7.19;85.56;100691.30;1952708;73;20143;-44
2023/02/20 04:00:46;;;;;;;;;;;;;;;7.19;85.56;100683.90;1954484;73;20104;-45
2023/02/20 04:03:16;;;;;;;;;;;;;;;7.19;85.51;100689.98;1953580;73;20127;-44
2023/02/20 04:05:46;;;;;;;;;;;;;;;7.19;85.46;100691.75;1953669;73;20140;-45
2023/02/20 04:08:19;;;;;;;;;;;;;;;7.19;85.42;100695.69;1953462;73;20124;-44
2023/02/20 04:10:49;;;;;;;;;;;;;;;7.20;85.36;100700.03;1951914;73;20116;-46
2023/02/20 04:13:17;;;;;;;;;;;;;;;7.23;85.19;100695.58;1953245;73;20116;-44
2023/02/20 04:15:49;;;;;;;;;;;;;;;7.24;85.15;100693.36;1953567;73;20111;-44
2023/02/20 04:18:18;;;;;;;;;;;;;;;7.24;85.14;100687.27;1955367;73;20115;-43
2023/02/20 04:20:48;;;;;;;;;;;;;;;7.24;85.08;100689.88;1965181;73;20362;-43
2023/02/20 04:23:19;;;;;;;;;;;;;;;7.23;84.96;100685.11;1964018;73;20437;-40
2023/02/20 04:25:48;;;;;;;;;;;;;;;7.23;84.84;100677.25;1965144;73;20138;-41
2023/02/20 04:28:16;;;;;;;;;;;;;;;7.24;84.69;100677.64;1920094;73;20112;-42
2023/02/20 04:30:46;;;;;;;;;;;;;;;7.23;84.63;100675.94;1951849;73;20146;-42
2023/02/20 04:33:15;;;;;;;;;;;;;;;7.24;84.63;100673.71;1955253;73;20112;-46
2023/02/20 04:35:43;;;;;;;;;;;;;;;7.25;84.63;100669.33;1955152;72;20410;-45
2023/02/20 04:38:11;;;;;;;;;;;;;;;7.25;84.54;100666.28;1955234;73;20108;-45
2023/02/20 04:40:39;;;;;;;;;;;;;;;7.24;84.18;100665.86;1936663;73;20147;-45
2023/02/20 04:43:08;;;;;;;;;;;;;;;7.27;84.36;100654.46;1926724;74;20164;-45
2023/02/20 04:45:36;;;;;;;;;;;;;;;7.28;84.12;100648.30;1926911;74;20143;-44
2023/02/20 04:48:05;;;;;;;;;;;;;;;7.29;84.01;100629.94;1926948;74;20147;-44
2023/02/20 04:50:33;;;;;;;;;;;;;;;7.27;84.27;100622.57;1942163;73;20112;-44
2023/02/20 04:53:02;;;;;;;;;;;;;;;7.27;84.47;100618.64;1952564;73;20120;-44
2023/02/20 04:55:30;;;;;;;;;;;;;;;7.28;84.55;100629.51;1952811;73;20104;-44
2023/02/20 04:57:59;;;;;;;;;;;;;;;7.29;83.77;100640.41;1952621;73;20155;-45
2023/02/20 05:00:28;;;;;;;;;;;;;;;7.32;83.94;100643.38;1952821;73;20144;-44
2023/02/20 05:02:57;;;;;;;;;;;;;;;7.33;83.98;100631.56;1952826;73;20154;-44
2023/02/20 05:05:26;;;;;;;;;;;;;;;7.34;84.17;100620.20;1952861;73;20113;-43
2023/02/20 05:07:55;;;;;;;;;;;;;;;7.31;84.00;100608.48;1952848;73;20120;-44
2023/02/20 05:10:24;;;;;;;;;;;;;;;7.27;85.16;100610.78;1951369;73;20112;-43
2023/02/20 05:12:53;;;;;;;;;;;;;;;7.21;86.04;100597.87;1953496;73;20172;-43
2023/02/20 05:15:21;;;;;;;;;;;;;;;7.16;87.09;100594.52;1953480;73;20143;-42
2023/02/20 05:17:49;;;;;;;;;;;;;;;7.12;88.01;100596.81;1953544;73;20159;-43
2023/02/20 05:20:18;;;;;;;;;;;;;;;7.08;88.46;100603.89;1953458;73;20145;-42
2023/02/20 05:22:46;;;;;;;;;;;;;;;7.08;88.83;100587.30;1952945;73;20382;-43
2023/02/20 05:25:14;;;;;;;;;;;;;;;7.12;89.26;100575.41;1953542;73;20199;-43
2023/02/20 05:27:42;;;;;;;;;;;;;;;7.17;89.50;100580.95;1953479;73;20146;-43
2023/02/20 05:30:10;;;;;;;;;;;;;;;7.18;89.43;100571.76;1953453;73;20154;-46
2023/02/20 05:32:38;;;;;;;;;;;;;;;7.19;90.02;100559.05;1960179;73;20158;-47
2023/02/20 05:35:06;;;;;;;;;;;;;;;7.21;90.43;100548.11;1965035;73;20104;-44
2023/02/20 05:37:34;;;;;;;;;;;;;;;7.24;90.61;100571.58;1965006;73;20120;-45
2023/02/20 05:40:02;;;;;;;;;;;;;;;7.26;90.85;100551.89;1965084;73;20116;-46
2023/02/20 05:42:30;;;;;;;;;;;;;;;7.28;91.29;100539.15;1950779;73;20169;-46
2023/02/20 05:44:57;;;;;;;;;;;;;;;7.31;91.45;100547.39;1913998;75;20145;-45
2023/02/20 05:47:25;;;;;;;;;;;;;;;7.30;91.66;100549.16;1914109;75;20102;-43
2023/02/20 05:49:53;;;;;;;;;;;;;;;7.31;91.65;100542.16;1913892;75;20114;-43
2023/02/20 05:52:20;;;;;;;;;;;;;;;7.35;91.91;100540.70;1942054;73;20167;-43
2023/02/20 05:54:48;;;;;;;;;;;;;;;7.40;91.85;100538.42;1953412;73;20100;-43
2023/02/20 05:57:16;;;;;;;;;;;;;;;7.43;92.25;100531.77;1953466;73;20117;-42
2023/02/20 05:59:44;;;;;;;;;;;;;;;7.48;92.21;100529.87;1953477;73;20143;-44
2023/02/20 06:02:11;;;;;;;;;;;;;;;7.54;92.62;100517.45;1953318;73;20151;-41
2023/02/20 06:04:39;;;;;;;;;;;;;;;7.59;92.91;100526.94;1953427;73;20151;-41
2023/02/20 06:07:09;;;;;;;;;;;;;;;7.61;92.98;100522.50;1953572;73;20104;-40
2023/02/20 06:09:37;;;;;;;;;;;;;;;7.62;92.93;100522.92;1953550;73;20104;-41
2023/02/20 06:12:05;;;;;;;;;;;;;;;7.66;92.82;100518.84;1953404;73;20242;-41
2023/02/20 06:14:33;;;;;;;;;;;;;;;7.67;92.60;100507.46;1953511;73;20143;-41
2023/02/20 06:17:00;;;;;;;;;;;;;;;7.71;92.43;100493.35;1953461;73;20108;-42
2023/02/20 06:19:28;;;;;;;;;;;;;;;7.77;92.35;100491.45;1953523;73;20110;-42
2023/02/20 06:21:57;;;;;;;;;;;;;;;7.80;92.27;100487.41;1952589;73;20142;-41
2023/02/20 06:24:26;;;;;;;;;;;;;;;7.82;92.20;100482.53;1937556;73;20134;-44
2023/02/20 06:26:54;;;;;;;;;;;;;;;7.87;92.08;100479.75;1950675;74;20606;-43
2023/02/20 06:29:21;;;;;;;;;;;;;;;7.92;92.02;100468.67;1950518;74;20124;-43
2023/02/20 06:31:49;;;;;;;;;;;;;;;7.96;91.88;100454.55;1950464;74;20143;-42
2023/02/20 06:34:17;;;;;;;;;;;;;;;8.03;91.69;100449.51;1950558;74;20146;-42
2023/02/20 06:36:45;;;;;;;;;;;;;;;8.09;91.58;100444.05;1945660;73;20147;-43
2023/02/20 06:39:13;;;;;;;;;;;;;;;8.15;91.49;100434.27;1949563;74;20108;-43
2023/02/20 06:41:41;;;;;;;;;;;;;;;8.20;91.31;100432.36;1949679;74;20116;-45
2023/02/20 06:44:09;;;;;;;;;;;;;;;8.25;91.12;100413.39;1949528;74;20100;-41
2023/02/20 06:46:38;;;;;;;;;;;;;;;8.29;90.91;100413.21;1947555;74;20223;-40
2023/02/20 06:49:06;;;;;;;;;;;;;;;8.36;90.77;100398.12;1949632;74;20149;-40
2023/02/20 06:51:34;;;;;;;;;;;;;;;8.42;90.65;100399.24;1949882;74;20147;-41
2023/02/20 06:54:02;;;;;;;;;;;;;;;8.47;90.51;100393.84;1951171;74;20104;-41
2023/02/20 06:56:31;;;;;;;;;;;;;;;8.51;90.48;100387.56;1951154;74;20112;-43
2023/02/20 06:58:59;;;;;;;;;;;;;;;8.57;90.37;100402.23;1944025;74;20116;-43
2023/02/20 07:01:29;;;;;;;;;;;;;;;8.62;90.21;100395.06;1949628;74;20117;-41
2023/02/20 07:03:58;;;;;;;;;;;;;;;8.69;90.03;100392.61;1949654;74;20117;-41
2023/02/20 07:06:26;;;;;;;;;;;;;;;8.74;89.32;100395.90;1949681;74;20409;-41
2023/02/20 07:08:54;;;;;;;;;;;;;;;8.80;89.23;100387.81;1947739;74;20143;-42
2023/02/20 07:11:22;;;;;;;;;;;;;;;8.86;89.20;100386.27;1951218;74;20408;-41
2023/02/20 07:13:50;;;;;;;;;;;;;;;8.91;88.99;100378.66;1951309;74;20113;-41
2023/02/20 07:16:18;;;;;;;;;;;;;;;8.92;88.76;100360.70;1951137;74;20147;-41
2023/02/20 07:18:46;;;;;;;;;;;;;;;8.95;88.46;100360.59;1940876;74;20112;-42
2023/02/20 07:21:15;;;;;;;;;;;;;;;9.00;88.62;100337.61;1923587;75;20155;-41
2023/02/20 07:23:44;;;;;;;;;;;;;;;9.07;88.48;100345.65;1923568;75;20382;-43
2023/02/20 07:26:19;;;;;;;;;;;;;;;9.15;88.42;100339.66;1922997;74;20199;-41
2023/02/20 07:28:47;;;;;;;;;;;;;;;9.20;88.07;100342.96;1925396;74;20389;-41
2023/02/20 07:31:14;;;;;;;;;;;;;;;9.30;88.23;100346.53;1923573;75;20100;-42
2023/02/20 07:33:42;;;;;;;;;;;;;;;9.39;87.81;100331.72;1946610;74;20124;-42
2023/02/20 07:36:11;;;;;;;;;;;;;;;9.45;87.55;100336.24;1949441;73;20133;-42
2023/02/20 07:38:39;;;;;;;;;;;;;;;9.54;87.70;100338.96;1942893;74;20191;-43
2023/02/20 07:41:07;;;;;;;;;;;;;;;9.56;87.49;100343.69;1935734;74;20379;-42
2023/02/20 07:43:35;;;;;;;;;;;;;;;9.58;87.54;100333.13;1949554;74;20143;-45
2023/02/20 07:46:03;;;;;;;;;;;;;;;9.59;87.44;100352.78;1949545;74;20104;-44
2023/02/20 07:48:33;;;;;;;;;;;;;;;9.60;87.00;100351.84;1949564;74;20186;-44
2023/02/20 07:51:00;;;;;;;;;;;;;;;9.69;87.34;100360.28;1941579;74;20105;-43
2023/02/20 07:53:28;;;;;;;;;;;;;;;9.77;87.50;100366.06;1923584;75;20100;-44
2023/02/20 07:55:55;;;;;;;;;;;;;;;9.75;87.39;100374.48;1923536;75;20116;-41
2023/02/20 07:58:24;;;;;;;;;;;;;;;9.72;87.55;100375.91;1923561;75;20112;-42
2023/02/20 08:00:53;;;;;;;;;;;;;;;9.65;87.72;100375.33;1925227;74;20202;-42
2023/02/20 08:03:21;;;;;;;;;;;;;;;9.60;87.77;100372.87;1923654;75;20402;-42
2023/02/20 08:05:48;;;;;;;;;;;;;;;9.54;87.79;100380.17;1923634;75;20143;-44
2023/02/20 08:08:16;;;;;;;;;;;;;;;9.46;87.96;100378.70;1923551;75;20100;-44
2023/02/20 08:10:44;;;;;;;;;;;;;;;9.42;88.16;100382.34;1935252;74;20116;-43
2023/02/20 08:13:12;;;;;;;;;;;;;;;9.36;88.32;100392.27;1951165;74;20116;-42
2023/02/20 08:15:59;;;;;;;;;;;;;;;9.28;88.27;100403.92;1951106;74;20104;-47
2023/02/20 08:18:27;;;;;;;;;;;;;;;9.21;88.30;100405.55;1951179;74;20112;-39
2023/02/20 08:20:54;;;;;;;;;;;;;;;9.12;88.33;100410.69;1943949;74;20116;-41
2023/02/20 08:23:24;;;;;;;;;;;;;;;9.04;88.40;100421.95;1923546;75;20145;-45
2023/02/20 08:25:52;;;;;;;;;;;;;;;8.97;88.40;100427.03;1923574;75;20147;-43
2023/02/20 08:28:20;;;;;;;;;;;;;;;8.90;88.44;100451.34;1923429;75;20116;-45
2023/02/20 08:30:48;;;;;;;;;;;;;;;8.78;88.24;100485.47;1925947;74;20259;-43
2023/02/20 08:33:15;;;;;;;;;;;;;;;8.29;85.69;100501.09;1923542;75;20151;-44
2023/02/20 08:35:43;;;;;;;;;;;;;;;7.65;84.33;100505.77;1923511;75;20120;-45
2023/02/20 08:38:25;;;;;;;;;;;;;;;7.03;83.33;100527.22;1949451;72;20197;-45
2023/02/20 08:40:53;;;;;;;;;;;;;;;6.66;84.18;100540.41;1952983;73;20370;-43
2023/02/20 08:43:20;;;;;;;;;;;;;;;6.36;84.31;100541.61;1953515;73;20386;-44
2023/02/20 08:45:48;;;;;;;;;;;;;;;6.07;84.82;100557.57;1952788;73;20104;-43
2023/02/20 08:48:16;;;;;;;;;;;;;;;5.88;84.93;100561.00;1951359;73;20112;-43
2023/02/20 08:50:45;;;;;;;;;;;;;;;5.72;84.93;100557.03;1950504;74;20151;-43
2023/02/20 08:53:14;;;;;;;;;;;;;;;5.58;85.11;100563.39;1950654;74;20194;-43
2023/02/20 08:55:42;;;;;;;;;;;;;;;5.43;85.07;100564.17;1950374;74;20160;-43
2023/02/20 08:58:12;;;;;;;;;;;;;;;5.37;85.37;100562.55;1950305;73;20236;-44
2023/02/20 09:00:39;;;;;;;;;;;;;;;5.33;85.54;100563.06;1953905;73;20104;-44
2023/02/20 09:03:07;;;;;;;;;;;;;;;5.28;85.72;100566.20;1955086;73;20112;-46
2023/02/20 09:05:35;;;;;;;;;;;;;;;5.30;85.92;100557.89;1955222;73;20147;-44
2023/02/20 09:08:03;;;;;;;;;;;;;;;5.31;86.03;100563.54;1955011;73;20112;-43
2023/02/20 09:10:31;;;;;;;;;;;;;;;5.32;85.85;100561.33;1955113;73;20120;-44
2023/02/20 09:12:59;;;;;;;;;;;;;;;5.30;85.82;100575.31;1955117;73;20112;-44
2023/02/20 09:15:27;;;;;;;;;;;;;;;5.24;85.91;100594.57;1955024;73;20104;-42
2023/02/20 09:17:55;;;;;;;;;;;;;;;5.27;85.96;100586.66;1955075;73;20167;-45
2023/02/20 09:20:23;;;;;;;;;;;;;;;5.24;85.65;100591.95;1955236;73;20116;-44
2023/02/20 09:22:51;;;;;;;;;;;;;;;5.25;86.08;100613.70;1955229;73;20174;-42
2023/02/20 09:25:19;;;;;;;;;;;;;;;5.23;86.18;100613.72;1955043;73;20100;-44
2023/02/20 09:27:46;;;;;;;;;;;;;;;5.22;86.14;100629.84;1955048;73;20117;-44
2023/02/20 09:30:18;;;;;;;;;;;;;;;5.14;85.87;100631.71;1955044;73;20138;-45
2023/02/20 09:32:46;;;;;;;;;;;;;;;5.13;86.01;100656.56;1955118;73;20148;-44
2023/02/20 09:35:21;;;;;;;;;;;;;;;5.06;85.71;100654.95;1954439;72;20353;-42
2023/02/20 09:37:49;;;;;;;;;;;;;;;5.02;85.43;100661.52;1956223;72;20509;-41
2023/02/20 09:40:17;;;;;;;;;;;;;;;4.98;85.80;100657.66;1971137;72;20207;-41
2023/02/20 09:42:46;;;;;;;;;;;;;;;4.89;85.70;100666.53;1956967;72;20112;-44
2023/02/20 09:45:18;;;;;;;;;;;;;;;4.81;85.30;100681.43;1971188;72;20177;-41
2023/02/20 09:47:56;;;;;;;;;;;;;;;4.69;85.26;100680.34;1970136;72;20147;-48
2023/02/20 09:50:29;;;;;;;;;;;;;;;4.61;85.25;100683.93;1963518;72;20109;-49
2023/02/20 09:52:56;;;;;;;;;;;;;;;4.58;85.27;100687.87;1959779;72;20152;-42
2023/02/20 09:55:25;;;;;;;;;;;;;;;4.52;85.56;100699.72;1952909;72;20100;-44
2023/02/20 09:57:54;;;;;;;;;;;;;;;4.52;85.69;100701.02;1958767;72;20273;-56
2023/02/20 10:00:24;;;;;;;;;;;;;;;4.51;84.57;100705.80;1960128;72;20147;-53
2023/02/20 10:02:53;;;;;;;;;;;;;;;4.35;85.18;100702.98;1962284;72;20260;-45
2023/02/20 10:05:25;;;;;;;;;;;;;;;4.33;85.28;100703.45;1958431;72;20146;-46
2023/02/20 10:07:53;;;;;;;;;;;;;;;4.23;85.57;100702.28;1971184;72;20140;-47
2023/02/20 10:10:37;;;;;;;;;;;;;;;4.28;85.70;100701.34;1965203;72;20120;-48
2023/02/20 10:13:20;;;;;;;;;;;;;;;4.27;85.81;100712.67;1965148;72;20148;-49
2023/02/20 10:15:55;;;;;;;;;;;;;;;4.24;85.89;100716.16;1957427;72;20169;-48
2023/02/20 10:18:25;;;;;;;;;;;;;;;4.29;85.83;100707.84;1945475;72;20101;-47
2023/02/20 10:20:55;;;;;;;;;;;;;;;4.33;85.67;100715.19;1939765;72;20235;-49
2023/02/20 10:23:24;;;;;;;;;;;;;;;4.39;85.98;100709.88;1966360;72;20100;-49
2023/02/20 10:25:53;;;;;;;;;;;;;;;4.48;85.83;100721.48;1957018;72;20164;-45
2023/02/20 10:28:22;;;;;;;;;;;;;;;4.53;85.92;100726.19;1959597;72;20215;-49
2023/02/20 10:31:01;;;;;;;;;;;;;;;4.60;85.98;100725.22;1961969;72;20180;-46
2023/02/20 10:33:41;;;;;;;;;;;;;;;4.60;85.91;100725.22;1956651;72;20425;-49
2023/02/20 10:36:10;;;;;;;;;;;;;;;4.69;85.87;100730.75;1966176;72;20364;-46
2023/02/20 10:38:49;;;;;;;;;;;;;;;4.76;85.85;100732.84;1947828;72;20104;-45
2023/02/20 10:41:34;;;;;;;;;;;;;;;4.70;85.83;100753.33;1918421;75;20132;-45
2023/02/20 10:44:12;;;;;;;;;;;;;;;4.66;85.76;100754.71;1919009;75;20194;-46
2023/02/20 10:46:47;;;;;;;;;;;;;;;4.67;85.96;100762.94;1922189;72;20114;-50
2023/02/20 10:49:16;;;;;;;;;;;;;;;4.59;85.34;100774.38;1972788;72;20112;-46
2023/02/20 10:51:46;;;;;;;;;;;;;;;4.59;85.36;100778.70;1952838;72;20106;-45
2023/02/20 10:54:20;;;;;;;;;;;;;;;4.59;85.44;100780.89;1951883;72;20144;-48
2023/02/20 10:56:51;;;;;;;;;;;;;;;4.58;85.69;100779.16;1936562;72;20218;-46
2023/02/20 10:59:35;;;;;;;;;;;;;;;4.62;85.87;100785.19;1924894;72;20113;-47
2023/02/20 11:02:04;;;;;;;;;;;;;;;4.61;85.45;100786.95;1959358;72;20106;-51
2023/02/20 11:04:33;;;;;;;;;;;;;;;4.60;85.33;100783.90;1974530;72;20196;-50
2023/02/20 11:07:02;;;;;;;;;;;;;;;4.63;85.57;100806.04;1954685;72;20114;-43
2023/02/20 11:09:30;;;;;;;;;;;;;;;4.56;85.33;100787.44;1943655;72;20104;-43
2023/02/20 11:11:58;;;;;;;;;;;;;;;4.61;85.38;100792.16;1950675;72;20214;-43
2023/02/20 11:14:27;;;;;;;;;;;;;;;4.76;85.41;100794.14;1962723;72;20111;-43
2023/02/20 11:17:14;;;;;;;;;;;;;;;4.92;85.37;100793.01;1931028;72;20210;-44
2023/02/20 11:19:48;;;;;;;;;;;;;;;5.03;85.35;100803.29;1984438;72;20440;-48
2023/02/20 11:22:17;;;;;;;;;;;;;;;5.09;85.25;100805.83;1931483;72;20099;-44
2023/02/20 11:24:45;;;;;;;;;;;;;;;5.09;84.76;100801.91;1936331;72;20271;-40
2023/02/20 11:27:15;;;;;;;;;;;;;;;5.01;84.42;100817.66;1945736;72;20544;-43
2023/02/20 11:29:50;;;;;;;;;;;;;;;5.01;84.62;100829.41;1938951;72;20121;-43
2023/02/20 11:32:40;;;;;;;;;;;;;;;5.07;84.61;100838.03;1938793;72;20193;-40
2023/02/20 11:35:19;;;;;;;;;;;;;;;4.99;84.32;100839.45;1957737;72;20384;-41
2023/02/20 11:37:48;;;;;;;;;;;;;;;4.89;83.37;100850.48;1942465;72;20234;-40
2023/02/20 11:40:18;;;;;;;;;;;;;;;4.84;84.07;100849.67;1985188;72;20117;-41
2023/02/20 11:42:53;;;;;;;;;;;;;;;4.72;83.46;100857.23;1973655;72;20108;-41
2023/02/20 11:45:25;;;;;;;;;;;;;;;4.75;83.80;100862.84;1986629;72;20146;-46
2023/02/20 11:48:10;;;;;;;;;;;;;;;4.76;83.81;100860.66;1993941;72;20120;-41
2023/02/20 11:50:41;;;;;;;;;;;;;;;4.73;83.71;100858.94;1964683;72;20266;-42
2023/02/20 11:53:21;;;;;;;;;;;;;;;4.75;83.63;100866.75;1972734;72;20184;-43
2023/02/20 11:55:49;;;;;;;;;;;;;;;4.84;83.50;100873.15;1979296;72;20120;-41
2023/02/20 11:58:24;;;;;;;;;;;;;;;4.89;83.44;100877.87;1991805;72;20111;-40
2023/02/20 12:00:53;;;;;;;;;;;;;;;4.92;82.94;100883.03;1977557;72;20426;-42
2023/02/20 12:03:22;;;;;;;;;;;;;;;5.01;83.13;100882.91;1974577;72;20412;-40
2023/02/20 12:05:51;;;;;;;;;;;;;;;5.13;83.23;100875.81;1977706;72;20475;-41
2023/02/20 12:08:20;;;;;;;;;;;;;;;5.25;82.88;100876.06;1985244;72;20156;-43
2023/02/20 12:10:49;;;;;;;;;;;;;;;5.29;82.66;100865.98;1942142;72;20111;-39
2023/02/20 12:13:17;;;;;;;;;;;;;;;5.25;81.64;100875.61;1975774;72;20211;-40
2023/02/20 12:15:46;;;;;;;;;;;;;;;5.17;82.43;100881.41;1984617;72;20237;-41
2023/02/20 12:18:15;;;;;;;;;;;;;;;5.23;82.75;100878.69;1968214;72;20112;-39
2023/02/20 12:20:44;;;;;;;;;;;;;;;5.30;82.38;100880.33;1989351;72;20398;-39
2023/02/20 12:23:23;;;;;;;;;;;;;;;5.29;82.12;100891.64;1974074;72;20197;-39
2023/02/20 12:26:07;;;;;;;;;;;;;;;5.33;81.45;100893.77;1978206;72;20405;-40
2023/02/20 12:28:55;;;;;;;;;;;;;;;5.40;81.33;100885.84;1976810;72;20101;-40
2023/02/20 12:31:24;;;;;;;;;;;;;;;5.45;81.01;100893.59;1970330;72;20222;-38
2023/02/20 12:33:56;;;;;;;;;;;;;;;5.51;80.78;100900.02;1967899;72;20224;-40
2023/02/20 12:36:40;;;;;;;;;;;;;;;5.64;79.81;100904.61;1975018;72;20146;-39
2023/02/20 12:39:22;;;;;;;;;;;;;;;5.79;80.00;100916.14;1963395;72;20112;-39
2023/02/20 12:41:58;;;;;;;;;;;;;;;6.05;80.01;100921.41;1969927;72;20376;-39
2023/02/20 12:44:30;;;;;;;;;;;;;;;6.14;77.96;100926.47;1916200;72;20114;-39
2023/02/20 12:47:14;;;;;;;;;;;;;;;6.24;78.02;100927.61;1956022;72;20122;-41
2023/02/20 12:50:00;;;;;;;;;;;;;;;6.25;77.45;100926.70;1963922;72;20155;-39
2023/02/20 12:52:41;;;;;;;;;;;;;;;6.23;77.75;100937.64;1937234;72;20156;-40
2023/02/20 12:55:13;;;;;;;;;;;;;;;6.19;77.00;100948.14;1923466;72;20140;-40
2023/02/20 12:57:59;;;;;;;;;;;;;;;6.13;76.85;100943.48;1991123;72;20113;-42
2023/02/20 13:00:45;;;;;;;;;;;;;;;6.12;77.21;100951.78;1962736;72;20144;-40
2023/02/20 13:03:23;;;;;;;;;;;;;;;6.14;77.32;100957.84;1954032;72;20198;-40
2023/02/20 13:05:52;;;;;;;;;;;;;;;5.94;75.26;100964.67;1954217;72;20116;-39
2023/02/20 13:08:27;;;;;;;;;;;;;;;5.72;76.86;100957.62;1948691;72;20116;-39
2023/02/20 13:10:56;;;;;;;;;;;;;;;5.49;77.13;100964.48;1948293;73;20116;-41
2023/02/20 13:13:26;;;;;;;;;;;;;;;5.38;76.67;100970.30;1951743;72;20116;-42
2023/02/20 13:16:05;;;;;;;;;;;;;;;5.41;76.79;100967.20;1977659;72;20113;-37
2023/02/20 13:18:40;;;;;;;;;;;;;;;5.52;77.02;100977.95;1955688;72;20205;-37
2023/02/20 13:21:10;;;;;;;;;;;;;;;5.52;76.30;100977.95;1954681;72;20246;-41